Ayden, NC

5:16 PM EDT on March 27, 2015 (GMT -0400)
Kinston Regional Jetport / Stallings Field | | Change Station
CLOSE
Current Station
Airport
Location: Kinston,
Elevation: 95 ft
Nearby Weather Stations
Active Advisory: Freeze Watch Active Notice: Local Storm Report

Elev 95 ft 35.33 °N, 77.61 °W | Updated 20 minutes ago

Rain
Rain
46 °F
Feels Like 42 °F
N
9
Wind Variable Wind from NE

Today
High -- | Low -- °F
--% Chance of Precip.
Yesterday
High -- | Low -- °F
Precip. -- in
7:03 AM 7:26 PM
First Quarter, 56% visible
Pressure 29.73 in
Visibility 7.0 miles
Clouds Mostly Cloudy 900 ft
Overcast 1500 ft
Windchill 42 °F
Dew Point 45 °F
Humidity 93%
Rainfall 0.01 in
Snow Depth Not available.
UV 1 out of 12
Pollen 2.70 out of 12
Air Quality Not available.
Flu Activity Not available.
METAR KISO 272056Z 05008KT 7SM RA BKN009 OVC015 08/07 A2973 RMK AO2

More Conditions Fewer Conditions

Pressure 29.73 in
Visibility 7.0 miles
Clouds Mostly Cloudy 900 ft
Overcast 1500 ft
Windchill 42 °F
Dew Point 45 °F
Humidity 93%
Rainfall 0.01 in
Snow Depth Not available.
UV 1 out of 12
Pollen 2.70 out of 12
Air Quality Not available.
Flu Activity Not available.
METAR KISO 272056Z 05008KT 7SM RA BKN009 OVC015 08/07 A2973 RMK AO2

More Conditions Fewer Conditions

10-Day Weather Forecast

Almanac

Astronomy

Mar. 27, 2015 Rise Set
Actual Time
Civil Twilight
Nautical Twilight
Astronomical Twilight
Moon
Length of Visible Light
Length of Day
Tomorrow will be .
, % of the Moon is Illuminated

Today's Extremes

State Highs State Lows

Community

WunderPhotos

Upload Photos

1,808,826 photos uploaded!

WunderBlogs® & News

Nearby

Air Quality

  Air Quality AQ Index Pollutant
Not available.

Snow Depth

Station Depth Elevation

Earthquake Activity

City Distance Mag. Time & Date
Minimum magnitude displayed is 2.5.

Coastal Water Temperatures

Place Temperature

Stations

Nearby Weather Stations

Station Location Temp. Windchill Dew Point Humidity Wind Precip. Elev Updated Type
                   
Freeze Watch
Statement as of 3:15 PM EDT on March 27, 2015

... Freeze watch remains in effect from late Saturday night
through Sunday morning...

* temperatures... in the mid to upper 20s most location and around
freezing close to the coast.

* Timing... Saturday night into early Sunday morning.

* Impacts... cold temperatures will damage or kill sensitive
plants.

Precautionary/preparedness actions...

A freeze watch means sub-freezing temperatures are possible.
These conditions could kill crops and other sensitive vegetation.